Time;durP1;ratioP1;P1;durP2;ratioP2;P2;SDS_P1;SDS_P2;PMS_P1;PMS_P2;Temp;Humidity;BMP_temperature;BMP_pressure;BME280_temperature;BME280_humidity;BME280_pressure;Samples;Min_cycle;Max_cycle;Signal;HPM_P1;HPM_P2
2021/06/01 00:00:20;;;;;;;3.45;1.50;;;;;;;;;;4999814;28;20067;-41
2021/06/01 00:02:45;;;;;;;3.72;1.20;;;;;;;;;;5003405;28;20043;-40
2021/06/01 00:05:10;;;;;;;1.40;0.82;;;;;;;;;;5002139;28;20029;-41
2021/06/01 00:07:36;;;;;;;2.75;1.65;;;;;;;;;;5002130;28;20464;-41
2021/06/01 00:10:03;;;;;;;3.25;1.45;;;;;;;;;;4998896;28;20034;-40
2021/06/01 00:12:28;;;;;;;5.28;1.55;;;;;;;;;;4998843;28;20037;-40
2021/06/01 00:14:53;;;;;;;2.85;1.40;;;;;;;;;;5002948;28;20034;-41
2021/06/01 00:17:19;;;;;;;1.88;1.13;;;;;;;;;;4999203;28;20422;-41
2021/06/01 00:19:44;;;;;;;1.75;1.10;;;;;;;;;;5002747;28;20026;-39
2021/06/01 00:22:09;;;;;;;1.10;0.93;;;;;;;;;;5003801;28;20102;-40
2021/06/01 00:24:34;;;;;;;1.70;1.05;;;;;;;;;;5008781;28;20030;-40
2021/06/01 00:27:00;;;;;;;2.08;1.35;;;;;;;;;;5005402;28;20040;-40
2021/06/01 00:29:26;;;;;;;2.80;1.45;;;;;;;;;;5003476;28;20113;-40
2021/06/01 00:31:51;;;;;;;1.90;1.20;;;;;;;;;;5001655;28;20038;-40
2021/06/01 00:34:16;;;;;;;12.85;1.75;;;;;;;;;;5000486;28;20030;-40
2021/06/01 00:36:42;;;;;;;2.22;0.85;;;;;;;;;;5003344;28;20117;-40
2021/06/01 00:39:07;;;;;;;1.67;0.90;;;;;;;;;;5003467;28;20030;-40
2021/06/01 00:41:33;;;;;;;2.80;1.17;;;;;;;;;;5003261;28;20475;-40
2021/06/01 00:43:58;;;;;;;3.22;1.67;;;;;;;;;;5004305;28;20533;-40
2021/06/01 00:46:24;;;;;;;6.53;1.35;;;;;;;;;;4997178;28;20105;-40
2021/06/01 00:48:49;;;;;;;2.25;1.20;;;;;;;;;;4997940;28;20056;-40
2021/06/01 00:51:14;;;;;;;1.10;0.75;;;;;;;;;;5000687;28;20031;-40
2021/06/01 00:53:40;;;;;;;3.35;1.25;;;;;;;;;;4999831;28;20093;-40
2021/06/01 00:56:05;;;;;;;1.58;0.73;;;;;;;;;;5002682;28;20063;-41
2021/06/01 00:58:31;;;;;;;3.75;1.15;;;;;;;;;;5003007;28;20030;-40
2021/06/01 01:03:37;;;;;;;3.40;1.13;;;;;;;;;;5020556;28;20093;-40
2021/06/01 01:06:05;;;;;;;3.45;1.20;;;;;;;;;;5020773;28;20025;-40
2021/06/01 01:10:58;;;;;;;1.67;0.93;;;;;;;;;;5018924;28;20116;-40
2021/06/01 01:13:23;;;;;;;1.67;0.80;;;;;;;;;;5021546;28;20724;-40
2021/06/01 01:15:49;;;;;;;2.58;0.90;;;;;;;;;;5020433;28;20092;-40
2021/06/01 01:18:17;;;;;;;5.18;1.35;;;;;;;;;;5018805;28;20034;-40
2021/06/01 01:21:00;;;;;;;1.33;1.05;;;;;;;;;;5017408;28;20120;-40
2021/06/01 01:23:27;;;;;;;1.92;1.30;;;;;;;;;;5021248;28;20028;-40
2021/06/01 01:26:11;;;;;;;1.67;0.95;;;;;;;;;;5022965;28;20116;-40
2021/06/01 01:28:36;;;;;;;3.45;1.27;;;;;;;;;;5022758;28;20483;-40
2021/06/01 01:31:06;;;;;;;2.90;1.58;;;;;;;;;;5021249;28;20173;-40
2021/06/01 01:33:33;;;;;;;4.13;1.90;;;;;;;;;;5017806;28;20032;-40
2021/06/01 01:36:00;;;;;;;2.05;1.20;;;;;;;;;;5021188;28;20498;-40
2021/06/01 01:38:26;;;;;;;2.75;1.08;;;;;;;;;;5023296;28;20113;-40
2021/06/01 01:40:58;;;;;;;2.25;1.05;;;;;;;;;;5019316;28;20124;-40
2021/06/01 01:43:26;;;;;;;3.28;1.10;;;;;;;;;;5018658;28;20033;-40
2021/06/01 01:46:00;;;;;;;1.05;0.77;;;;;;;;;;5022122;28;20030;-40
2021/06/01 01:51:12;;;;;;;1.67;0.77;;;;;;;;;;5017434;28;20040;-40
2021/06/01 01:53:42;;;;;;;1.90;1.38;;;;;;;;;;5021665;28;20250;-40
2021/06/01 01:56:07;;;;;;;2.07;1.70;;;;;;;;;;5021713;28;20049;-40
2021/06/01 01:58:33;;;;;;;2.53;1.45;;;;;;;;;;5021172;28;20026;-40
2021/06/01 02:00:59;;;;;;;1.55;1.15;;;;;;;;;;5017045;28;20462;-40
2021/06/01 02:03:25;;;;;;;5.38;1.45;;;;;;;;;;5018029;28;20065;-40
2021/06/01 02:05:52;;;;;;;1.42;0.85;;;;;;;;;;5019768;28;20056;-40
2021/06/01 02:08:17;;;;;;;3.33;0.77;;;;;;;;;;5021258;28;20385;-40
2021/06/01 02:10:42;;;;;;;1.67;0.73;;;;;;;;;;5020740;28;20033;-39
2021/06/01 02:13:08;;;;;;;1.40;0.82;;;;;;;;;;5019500;28;20041;-40
2021/06/01 02:15:33;;;;;;;2.17;0.82;;;;;;;;;;5021053;28;20033;-41
2021/06/01 02:17:58;;;;;;;2.28;0.93;;;;;;;;;;5017939;28;20091;-42
2021/06/01 02:20:24;;;;;;;4.32;1.17;;;;;;;;;;5018829;28;20025;-43
2021/06/01 02:25:38;;;;;;;4.40;1.23;;;;;;;;;;5021542;28;20056;-40
2021/06/01 02:28:22;;;;;;;2.10;1.08;;;;;;;;;;5019083;28;20038;-40
2021/06/01 02:31:04;;;;;;;6.40;1.23;;;;;;;;;;5018785;28;20037;-39
2021/06/01 02:33:31;;;;;;;3.10;1.38;;;;;;;;;;5018354;28;20038;-40
2021/06/01 02:35:57;;;;;;;1.98;1.25;;;;;;;;;;5015148;28;20113;-41
2021/06/01 02:38:23;;;;;;;2.53;2.13;;;;;;;;;;5017686;28;20037;-40
2021/06/01 02:40:50;;;;;;;2.72;1.40;;;;;;;;;;5014735;28;20466;-40
2021/06/01 02:43:15;;;;;;;2.85;1.42;;;;;;;;;;5017788;28;20025;-41
2021/06/01 02:45:41;;;;;;;3.55;1.73;;;;;;;;;;5017183;28;20036;-40
2021/06/01 02:48:07;;;;;;;1.05;0.73;;;;;;;;;;5016105;28;20026;-40
2021/06/01 02:50:34;;;;;;;3.35;1.42;;;;;;;;;;5017899;28;20029;-39
2021/06/01 02:53:00;;;;;;;4.72;1.52;;;;;;;;;;5018398;28;20045;-40
2021/06/01 02:55:25;;;;;;;1.92;1.40;;;;;;;;;;5018869;28;20116;-40
2021/06/01 02:57:51;;;;;;;2.15;1.25;;;;;;;;;;5018161;28;20120;-40
2021/06/01 03:00:18;;;;;;;6.13;1.25;;;;;;;;;;5018760;28;20029;-39
2021/06/01 03:02:43;;;;;;;2.65;1.95;;;;;;;;;;5017403;28;20042;-39
2021/06/01 03:05:09;;;;;;;2.67;1.63;;;;;;;;;;5017869;28;20045;-41
2021/06/01 03:07:36;;;;;;;2.22;1.13;;;;;;;;;;5019327;28;20030;-40
2021/06/01 03:10:03;;;;;;;1.75;1.23;;;;;;;;;;5017154;28;20486;-40
2021/06/01 03:14:57;;;;;;;2.97;1.52;;;;;;;;;;5016893;28;20033;-39
2021/06/01 03:17:22;;;;;;;2.15;1.42;;;;;;;;;;5016609;28;20403;-40
2021/06/01 03:19:47;;;;;;;1.98;1.50;;;;;;;;;;5019312;28;20412;-38
2021/06/01 03:22:13;;;;;;;5.95;0.85;;;;;;;;;;5019997;28;20065;-40
2021/06/01 03:24:38;;;;;;;1.73;1.17;;;;;;;;;;5019676;28;20029;-39
2021/06/01 03:27:04;;;;;;;1.50;0.70;;;;;;;;;;5019165;28;20121;-38
2021/06/01 03:29:29;;;;;;;1.70;1.10;;;;;;;;;;5021114;28;20054;-39
2021/06/01 03:31:54;;;;;;;1.30;1.00;;;;;;;;;;5023724;28;20115;-39
2021/06/01 03:34:20;;;;;;;4.63;1.67;;;;;;;;;;5022550;28;20089;-40
2021/06/01 03:36:45;;;;;;;8.18;2.22;;;;;;;;;;5023209;28;20037;-38
2021/06/01 03:39:10;;;;;;;1.65;1.13;;;;;;;;;;5022851;28;20030;-39
2021/06/01 03:41:36;;;;;;;2.35;1.45;;;;;;;;;;5021282;28;20559;-39
2021/06/01 03:44:02;;;;;;;1.52;0.98;;;;;;;;;;5023703;28;20036;-40
2021/06/01 03:46:27;;;;;;;2.08;0.98;;;;;;;;;;5030011;28;20022;-38
2021/06/01 03:48:52;;;;;;;3.97;1.80;;;;;;;;;;5020695;28;20091;-39
2021/06/01 03:51:18;;;;;;;13.57;1.90;;;;;;;;;;5024644;28;20534;-39
2021/06/01 03:53:43;;;;;;;6.75;1.20;;;;;;;;;;5022563;28;20474;-39
2021/06/01 03:56:09;;;;;;;5.70;1.30;;;;;;;;;;5020900;28;20116;-41
2021/06/01 03:58:34;;;;;;;1.58;1.08;;;;;;;;;;5005638;28;20034;-38
2021/06/01 04:00:59;;;;;;;2.67;1.17;;;;;;;;;;5018245;28;20045;-38
2021/06/01 04:03:24;;;;;;;1.55;1.33;;;;;;;;;;5022411;28;20182;-38
2021/06/01 04:05:50;;;;;;;1.92;1.27;;;;;;;;;;5020377;28;20021;-39
2021/06/01 04:08:15;;;;;;;7.10;2.60;;;;;;;;;;5021521;28;20040;-39
2021/06/01 04:10:40;;;;;;;5.10;1.85;;;;;;;;;;5023399;28;20033;-39
2021/06/01 04:13:06;;;;;;;6.03;2.05;;;;;;;;;;5017664;28;20056;-38
2021/06/01 04:15:31;;;;;;;3.65;2.13;;;;;;;;;;5021403;28;20107;-38
2021/06/01 04:17:56;;;;;;;2.97;1.30;;;;;;;;;;5020661;28;20479;-39
2021/06/01 04:20:22;;;;;;;5.38;0.82;;;;;;;;;;5020013;28;20049;-39
2021/06/01 04:22:48;;;;;;;2.20;1.23;;;;;;;;;;5024305;28;20408;-39
2021/06/01 04:25:13;;;;;;;4.70;1.77;;;;;;;;;;5022829;28;20116;-38
2021/06/01 04:27:38;;;;;;;6.95;1.60;;;;;;;;;;5022902;28;20034;-38
2021/06/01 04:30:05;;;;;;;7.43;1.40;;;;;;;;;;5021806;28;20041;-39
2021/06/01 04:32:30;;;;;;;2.33;1.00;;;;;;;;;;5020354;28;20458;-39
2021/06/01 04:34:56;;;;;;;6.72;1.98;;;;;;;;;;5023057;28;20490;-39
2021/06/01 04:37:21;;;;;;;1.25;0.88;;;;;;;;;;5021578;28;20518;-39
2021/06/01 04:39:46;;;;;;;2.97;1.00;;;;;;;;;;5020149;28;20103;-39
2021/06/01 04:42:12;;;;;;;3.38;1.65;;;;;;;;;;5017766;28;20418;-39
2021/06/01 04:44:37;;;;;;;2.47;1.20;;;;;;;;;;5022142;28;20025;-39
2021/06/01 04:47:02;;;;;;;3.33;1.80;;;;;;;;;;5022487;28;20029;-39
2021/06/01 04:49:28;;;;;;;2.97;1.80;;;;;;;;;;5019849;28;20056;-40
2021/06/01 04:51:53;;;;;;;4.00;1.38;;;;;;;;;;5022933;28;20391;-39
2021/06/01 04:54:18;;;;;;;6.40;1.45;;;;;;;;;;5022524;28;20138;-39
2021/06/01 04:56:44;;;;;;;2.75;2.08;;;;;;;;;;5022701;28;20072;-39
2021/06/01 04:59:09;;;;;;;3.47;1.42;;;;;;;;;;5018759;28;20065;-39
2021/06/01 05:01:34;;;;;;;3.35;1.58;;;;;;;;;;5020360;28;20049;-41
2021/06/01 05:03:59;;;;;;;10.43;1.50;;;;;;;;;;5016675;28;20037;-39
2021/06/01 05:06:25;;;;;;;4.55;2.22;;;;;;;;;;5018987;28;20513;-39
2021/06/01 05:08:50;;;;;;;2.65;1.67;;;;;;;;;;5018620;28;20069;-39
2021/06/01 05:11:16;;;;;;;1.98;1.77;;;;;;;;;;5018897;28;20040;-39
2021/06/01 05:13:42;;;;;;;2.55;1.42;;;;;;;;;;5021028;28;20073;-40
2021/06/01 05:16:07;;;;;;;3.70;2.05;;;;;;;;;;5022529;28;20435;-40
2021/06/01 05:18:33;;;;;;;6.88;3.28;;;;;;;;;;5022324;28;20091;-39
2021/06/01 05:20:58;;;;;;;3.60;1.77;;;;;;;;;;5021966;28;20030;-39
2021/06/01 05:23:23;;;;;;;8.07;5.07;;;;;;;;;;5020971;28;20030;-40
2021/06/01 05:25:49;;;;;;;4.22;2.65;;;;;;;;;;5022299;28;20117;-39
2021/06/01 05:28:14;;;;;;;9.05;2.78;;;;;;;;;;5016161;28;20103;-39
2021/06/01 05:33:36;;;;;;;6.43;2.50;;;;;;;;;;4998150;28;20045;-38
2021/06/01 05:36:02;;;;;;;2.75;1.83;;;;;;;;;;5019496;28;20034;-39
2021/06/01 05:38:30;;;;;;;3.03;1.92;;;;;;;;;;5015826;28;20052;-39
2021/06/01 05:40:55;;;;;;;1.90;1.35;;;;;;;;;;5017667;28;20514;-40
2021/06/01 05:43:21;;;;;;;6.78;2.30;;;;;;;;;;5020813;28;20033;-39
2021/06/01 05:45:47;;;;;;;5.03;3.10;;;;;;;;;;5022095;28;20029;-39
2021/06/01 05:48:12;;;;;;;2.33;1.35;;;;;;;;;;5021376;28;20030;-39
2021/06/01 05:50:38;;;;;;;4.65;3.25;;;;;;;;;;5020350;28;20037;-38
2021/06/01 05:53:04;;;;;;;23.92;6.55;;;;;;;;;;5018725;28;20087;-40
2021/06/01 05:55:29;;;;;;;5.82;2.67;;;;;;;;;;5020680;28;20037;-39
2021/06/01 05:57:55;;;;;;;8.25;2.25;;;;;;;;;;5019567;28;20041;-40
2021/06/01 06:00:21;;;;;;;8.32;2.95;;;;;;;;;;5014705;28;20037;-39
2021/06/01 06:02:46;;;;;;;3.30;2.47;;;;;;;;;;5019316;28;20048;-39
2021/06/01 06:05:12;;;;;;;15.57;3.22;;;;;;;;;;5018902;28;20117;-38
2021/06/01 06:07:37;;;;;;;8.20;2.40;;;;;;;;;;5021895;28;20029;-39
2021/06/01 06:10:03;;;;;;;3.78;1.80;;;;;;;;;;5017550;28;20038;-39
2021/06/01 06:12:28;;;;;;;4.07;2.72;;;;;;;;;;5020598;28;20386;-39
2021/06/01 06:14:54;;;;;;;2.40;1.25;;;;;;;;;;5019029;28;20038;-39
2021/06/01 06:17:30;;;;;;;3.80;1.88;;;;;;;;;;5018664;28;20042;-39
2021/06/01 06:19:57;;;;;;;4.85;1.95;;;;;;;;;;5019962;28;20402;-39
2021/06/01 06:22:22;;;;;;;3.15;1.35;;;;;;;;;;5022630;28;20030;-38
2021/06/01 06:24:48;;;;;;;5.05;2.50;;;;;;;;;;5020174;28;20040;-39
2021/06/01 06:27:13;;;;;;;10.90;2.42;;;;;;;;;;5019347;28;20034;-39
2021/06/01 06:29:38;;;;;;;5.85;2.08;;;;;;;;;;5017424;28;20517;-39
2021/06/01 06:32:04;;;;;;;4.03;1.75;;;;;;;;;;5019598;28;20030;-38
2021/06/01 06:34:29;;;;;;;2.85;1.77;;;;;;;;;;5019619;28;20049;-39
2021/06/01 06:36:55;;;;;;;4.75;2.75;;;;;;;;;;5018103;28;20021;-40
2021/06/01 06:39:20;;;;;;;5.15;2.25;;;;;;;;;;5021341;28;20037;-39
2021/06/01 06:41:45;;;;;;;2.85;2.15;;;;;;;;;;5021898;28;20045;-39
2021/06/01 06:44:12;;;;;;;3.85;2.65;;;;;;;;;;5019180;28;20075;-39
2021/06/01 06:46:43;;;;;;;10.75;2.67;;;;;;;;;;5021570;28;20487;-41
2021/06/01 06:49:08;;;;;;;7.80;2.60;;;;;;;;;;5018844;28;20095;-39
2021/06/01 06:51:34;;;;;;;5.13;4.03;;;;;;;;;;5015389;28;20264;-39
2021/06/01 06:53:59;;;;;;;3.97;2.55;;;;;;;;;;5020090;28;20030;-40
2021/06/01 06:56:25;;;;;;;4.47;2.83;;;;;;;;;;5018197;28;20553;-39
2021/06/01 06:58:51;;;;;;;5.00;3.42;;;;;;;;;;5016864;28;20033;-39
2021/06/01 07:01:16;;;;;;;6.15;3.95;;;;;;;;;;5018560;28;20434;-39
2021/06/01 07:03:42;;;;;;;11.80;5.22;;;;;;;;;;5020894;28;20347;-39
2021/06/01 07:06:07;;;;;;;4.15;2.50;;;;;;;;;;5017815;28;20387;-41
2021/06/01 07:08:33;;;;;;;17.95;8.07;;;;;;;;;;5019980;28;20053;-39
2021/06/01 07:10:58;;;;;;;23.17;10.15;;;;;;;;;;5018444;28;20030;-39
2021/06/01 07:13:35;;;;;;;22.67;7.75;;;;;;;;;;5019100;28;20104;-39
2021/06/01 07:16:01;;;;;;;8.32;5.80;;;;;;;;;;5016706;28;20056;-39
2021/06/01 07:18:26;;;;;;;7.32;4.88;;;;;;;;;;5017311;28;20487;-39
2021/06/01 07:20:52;;;;;;;12.95;6.75;;;;;;;;;;5021046;28;20034;-39
2021/06/01 07:23:17;;;;;;;5.47;4.18;;;;;;;;;;5015807;28;20117;-39
2021/06/01 07:25:42;;;;;;;6.80;4.50;;;;;;;;;;5018475;28;20033;-43
2021/06/01 07:28:08;;;;;;;10.38;4.65;;;;;;;;;;5021931;28;20044;-41
2021/06/01 07:30:33;;;;;;;7.40;3.55;;;;;;;;;;5020280;28;20054;-43
2021/06/01 07:32:59;;;;;;;7.47;3.83;;;;;;;;;;5017980;28;20042;-36
2021/06/01 07:35:25;;;;;;;9.65;4.68;;;;;;;;;;5021782;28;20040;-36
2021/06/01 07:37:50;;;;;;;6.20;4.20;;;;;;;;;;5018229;28;20347;-35
2021/06/01 07:40:16;;;;;;;8.73;4.60;;;;;;;;;;5019962;28;20057;-36
2021/06/01 07:42:41;;;;;;;7.30;5.40;;;;;;;;;;5017790;28;20108;-36
2021/06/01 07:45:07;;;;;;;10.52;4.60;;;;;;;;;;5020337;28;20025;-35
2021/06/01 07:47:32;;;;;;;6.82;3.78;;;;;;;;;;5023097;28;20566;-36
2021/06/01 07:49:58;;;;;;;9.48;2.80;;;;;;;;;;5021950;28;20038;-35
2021/06/01 07:52:23;;;;;;;8.55;3.72;;;;;;;;;;5019931;28;20478;-35
2021/06/01 07:54:49;;;;;;;7.32;3.03;;;;;;;;;;5018587;28;20029;-35
2021/06/01 07:57:15;;;;;;;9.95;3.75;;;;;;;;;;5019859;28;20485;-35
2021/06/01 07:59:40;;;;;;;9.00;3.03;;;;;;;;;;5019489;28;20034;-35
2021/06/01 08:02:07;;;;;;;7.10;3.78;;;;;;;;;;5017551;28;20100;-43
2021/06/01 08:04:32;;;;;;;11.18;9.02;;;;;;;;;;5014873;28;20030;-37
2021/06/01 08:07:02;;;;;;;5.30;3.13;;;;;;;;;;5017850;28;20031;-36
2021/06/01 08:09:28;;;;;;;13.45;3.63;;;;;;;;;;5018621;28;20395;-35
2021/06/01 08:11:56;;;;;;;67.05;17.67;;;;;;;;;;5017830;28;20497;-36
2021/06/01 08:14:21;;;;;;;22.08;7.25;;;;;;;;;;5018205;28;20551;-36
2021/06/01 08:16:47;;;;;;;3.08;2.30;;;;;;;;;;5023790;28;20045;-36
2021/06/01 08:19:19;;;;;;;11.27;3.03;;;;;;;;;;5022117;28;20116;-36
2021/06/01 08:21:56;;;;;;;5.80;3.42;;;;;;;;;;5019555;28;20034;-35
2021/06/01 08:24:22;;;;;;;3.15;2.05;;;;;;;;;;5019721;28;20463;-35
2021/06/01 08:26:47;;;;;;;8.77;3.75;;;;;;;;;;5025809;28;20112;-36
2021/06/01 08:29:13;;;;;;;11.10;3.90;;;;;;;;;;5019036;28;20069;-36
2021/06/01 08:31:39;;;;;;;5.38;4.25;;;;;;;;;;5025309;28;20109;-35
2021/06/01 08:34:04;;;;;;;5.47;3.80;;;;;;;;;;5019450;28;20037;-36
2021/06/01 08:36:29;;;;;;;4.05;2.38;;;;;;;;;;5014908;28;20042;-39
2021/06/01 08:38:55;;;;;;;4.45;2.92;;;;;;;;;;5024648;28;20061;-35
2021/06/01 08:41:20;;;;;;;3.70;2.17;;;;;;;;;;5025422;28;20474;-36
2021/06/01 08:43:47;;;;;;;11.93;5.32;;;;;;;;;;5021634;28;20163;-36
2021/06/01 08:46:13;;;;;;;4.85;3.05;;;;;;;;;;5020801;28;20084;-36
2021/06/01 08:48:38;;;;;;;5.43;3.30;;;;;;;;;;5020367;28;20037;-36
2021/06/01 08:51:06;;;;;;;6.05;3.45;;;;;;;;;;5020529;28;20033;-35
2021/06/01 08:53:32;;;;;;;5.95;2.15;;;;;;;;;;5020464;28;20068;-36
2021/06/01 08:55:57;;;;;;;13.02;3.58;;;;;;;;;;5021353;28;20041;-38
2021/06/01 08:58:23;;;;;;;8.65;1.42;;;;;;;;;;5020313;28;20486;-36
2021/06/01 09:00:48;;;;;;;3.05;2.33;;;;;;;;;;5020452;28;20034;-35
2021/06/01 09:03:32;;;;;;;2.15;1.42;;;;;;;;;;5022716;28;20033;-35
2021/06/01 09:06:22;;;;;;;6.22;1.23;;;;;;;;;;5021314;28;20080;-35
2021/06/01 09:22:32;;;;;;;5.00;1.77;;;;;;;;;;5019211;28;20631;-36
2021/06/01 09:25:04;;;;;;;5.22;2.13;;;;;;;;;;5019508;28;20152;-35
2021/06/01 09:27:32;;;;;;;2.78;1.73;;;;;;;;;;5020011;28;20041;-36
2021/06/01 09:29:57;;;;;;;6.55;2.22;;;;;;;;;;5020670;28;20037;-36
2021/06/01 09:32:23;;;;;;;4.22;2.78;;;;;;;;;;5022354;28;20044;-35
2021/06/01 09:34:50;;;;;;;1.40;0.85;;;;;;;;;;5021602;28;20053;-35
2021/06/01 09:37:15;;;;;;;10.52;1.98;;;;;;;;;;5020083;28;20040;-35
2021/06/01 09:39:41;;;;;;;3.60;1.88;;;;;;;;;;5025077;28;20025;-35
2021/06/01 09:42:26;;;;;;;6.30;3.13;;;;;;;;;;5018395;28;20053;-35
2021/06/01 09:45:02;;;;;;;5.05;2.30;;;;;;;;;;5017203;28;20561;-35
2021/06/01 09:47:43;;;;;;;3.70;1.90;;;;;;;;;;5018070;28;20484;-37
2021/06/01 09:50:13;;;;;;;2.05;1.20;;;;;;;;;;5016218;28;20064;-37
2021/06/01 09:52:49;;;;;;;3.47;1.80;;;;;;;;;;5016410;28;20088;-38
2021/06/01 09:55:15;;;;;;;4.57;1.98;;;;;;;;;;5020378;28;20034;-40
2021/06/01 09:57:44;;;;;;;5.57;1.35;;;;;;;;;;5020730;28;20029;-38
2021/06/01 10:00:13;;;;;;;3.13;1.33;;;;;;;;;;5015896;28;20025;-38
2021/06/01 10:02:39;;;;;;;2.72;2.13;;;;;;;;;;5015464;28;20045;-37
2021/06/01 10:05:12;;;;;;;1.77;1.20;;;;;;;;;;5021064;28;20033;-38
2021/06/01 10:07:37;;;;;;;3.63;2.10;;;;;;;;;;5020490;28;20038;-36
2021/06/01 10:10:13;;;;;;;2.13;1.08;;;;;;;;;;5018841;28;20398;-35
2021/06/01 10:12:38;;;;;;;2.00;1.35;;;;;;;;;;5020205;28;20076;-36
2021/06/01 10:15:04;;;;;;;4.03;1.90;;;;;;;;;;5019515;28;20053;-35
2021/06/01 10:17:29;;;;;;;3.55;1.98;;;;;;;;;;5020240;28;20026;-35
2021/06/01 10:19:55;;;;;;;2.97;1.40;;;;;;;;;;5018304;28;20033;-35
2021/06/01 10:22:20;;;;;;;8.70;2.38;;;;;;;;;;5016078;28;20026;-35
2021/06/01 10:24:45;;;;;;;7.72;3.38;;;;;;;;;;5019835;28;20035;-35
2021/06/01 10:27:11;;;;;;;4.97;2.28;;;;;;;;;;5022637;28;20168;-35
2021/06/01 10:29:37;;;;;;;4.43;2.33;;;;;;;;;;5022692;28;20057;-35
2021/06/01 10:32:02;;;;;;;3.58;2.03;;;;;;;;;;5015427;28;20038;-35
2021/06/01 10:34:30;;;;;;;6.40;2.42;;;;;;;;;;5019227;28;20068;-35
2021/06/01 10:42:43;;;;;;;4.65;1.90;;;;;;;;;;5018122;28;20564;-35
2021/06/01 10:50:43;;;;;;;3.00;1.58;;;;;;;;;;5019812;28;20037;-35
2021/06/01 10:53:14;;;;;;;2.38;1.02;;;;;;;;;;5017527;28;20100;-35
2021/06/01 10:55:59;;;;;;;4.18;1.48;;;;;;;;;;5019329;28;20406;-35
2021/06/01 10:58:31;;;;;;;5.07;1.38;;;;;;;;;;5016971;28;20052;-34
2021/06/01 11:04:04;;;;;;;6.95;1.60;;;;;;;;;;5017476;28;20033;-34
2021/06/01 11:06:58;;;;;;;10.32;1.15;;;;;;;;;;5019147;28;20455;-34
2021/06/01 11:09:33;;;;;;;1.05;0.60;;;;;;;;;;5018427;28;20120;-34
2021/06/01 11:12:26;;;;;;;2.17;1.42;;;;;;;;;;5017429;28;20089;-35
2021/06/01 11:14:53;;;;;;;2.78;1.40;;;;;;;;;;5020475;28;20585;-34
2021/06/01 11:17:34;;;;;;;2.60;1.23;;;;;;;;;;5017918;28;20072;-35
2021/06/01 11:20:16;;;;;;;2.70;1.42;;;;;;;;;;5016487;28;20045;-35
2021/06/01 11:22:54;;;;;;;4.45;2.15;;;;;;;;;;5015219;28;20042;-35
2021/06/01 11:33:37;;;;;;;1.38;0.93;;;;;;;;;;5019393;28;20033;-34
2021/06/01 11:36:11;;;;;;;8.02;1.05;;;;;;;;;;5017618;28;20025;-34
2021/06/01 11:38:43;;;;;;;2.63;1.33;;;;;;;;;;5022629;28;20435;-34
2021/06/01 11:43:54;;;;;;;2.85;1.75;;;;;;;;;;5018848;28;20168;-34
2021/06/01 11:51:15;;;;;;;2.55;1.55;;;;;;;;;;5016877;28;20028;-34
2021/06/01 11:54:03;;;;;;;3.88;2.03;;;;;;;;;;5021280;28;20909;-34
2021/06/01 11:57:03;;;;;;;1.38;0.98;;;;;;;;;;5019467;28;20037;-35
2021/06/01 12:12:56;;;;;;;3.15;1.80;;;;;;;;;;5020350;28;20036;-35
2021/06/01 12:18:25;;;;;;;9.30;2.50;;;;;;;;;;5022696;28;20037;-36
2021/06/01 12:20:51;;;;;;;15.48;2.40;;;;;;;;;;5024388;28;20030;-36
2021/06/01 12:23:33;;;;;;;3.03;1.65;;;;;;;;;;5022204;28;20500;-35
2021/06/01 12:32:02;;;;;;;1.92;1.27;;;;;;;;;;5018177;28;20528;-35
2021/06/01 12:41:41;;;;;;;3.65;1.90;;;;;;;;;;5024233;28;20037;-35
2021/06/01 12:44:55;;;;;;;2.38;1.52;;;;;;;;;;5021281;28;20021;-36
2021/06/01 13:23:18;;;;;;;2.75;1.20;;;;;;;;;;5017184;28;20494;-35
2021/06/01 13:47:18;;;;;;;1.92;1.33;;;;;;;;;;5021022;28;20157;-37
2021/06/01 13:49:53;;;;;;;2.03;1.27;;;;;;;;;;5018760;28;20060;-36
2021/06/01 14:38:00;;;;;;;7.97;2.63;;;;;;;;;;5015944;28;20124;-35
2021/06/01 16:32:00;;;;;;;6.57;2.33;;;;;;;;;;5020376;28;20036;-35
2021/06/01 16:43:28;;;;;;;5.75;2.60;;;;;;;;;;5020724;28;20033;-36
2021/06/01 17:04:51;;;;;;;2.80;2.60;;;;;;;;;;5018038;28;20040;-35
2021/06/01 17:13:01;;;;;;;3.63;2.03;;;;;;;;;;5017306;28;20152;-35
2021/06/01 17:15:26;;;;;;;5.55;2.53;;;;;;;;;;5018987;28;20121;-35
2021/06/01 17:18:04;;;;;;;5.80;2.47;;;;;;;;;;5017883;28;20037;-35
2021/06/01 17:34:34;;;;;;;7.00;2.33;;;;;;;;;;5018980;28;20523;-35
2021/06/01 17:37:00;;;;;;;5.97;1.80;;;;;;;;;;5016265;28;20735;-35
2021/06/01 17:39:26;;;;;;;3.20;1.98;;;;;;;;;;5019731;28;20041;-35
2021/06/01 17:41:52;;;;;;;6.40;2.92;;;;;;;;;;5015768;28;20528;-35
2021/06/01 17:44:19;;;;;;;8.98;1.48;;;;;;;;;;5018504;28;20022;-35
2021/06/01 17:46:46;;;;;;;11.30;2.33;;;;;;;;;;5021613;28;20026;-36
2021/06/01 17:49:13;;;;;;;8.13;2.58;;;;;;;;;;5019095;28;20037;-37
2021/06/01 17:51:41;;;;;;;7.05;3.20;;;;;;;;;;5015955;28;20289;-35
2021/06/01 17:54:06;;;;;;;5.00;1.83;;;;;;;;;;5017941;28;20121;-35
2021/06/01 17:56:33;;;;;;;8.25;2.65;;;;;;;;;;5015728;28;20112;-35
2021/06/01 17:58:59;;;;;;;6.63;2.15;;;;;;;;;;5018062;28;20041;-35
2021/06/01 18:01:25;;;;;;;4.95;2.35;;;;;;;;;;5017858;28;20451;-35
2021/06/01 18:06:22;;;;;;;15.07;2.38;;;;;;;;;;5018908;28;20116;-36
2021/06/01 19:00:28;;;;;;;30.80;3.22;;;;;;;;;;5017978;28;20441;-35
2021/06/01 19:51:29;;;;;;;11.40;3.47;;;;;;;;;;5015184;28;20045;-35
2021/06/01 19:53:54;;;;;;;5.43;2.53;;;;;;;;;;5015034;28;20125;-35
2021/06/01 19:56:20;;;;;;;6.10;2.92;;;;;;;;;;5020413;28;20068;-35
2021/06/01 19:58:48;;;;;;;7.18;3.45;;;;;;;;;;5019171;28;20025;-35
2021/06/01 20:01:13;;;;;;;7.80;3.63;;;;;;;;;;5016122;28;20034;-36
2021/06/01 20:03:39;;;;;;;6.57;3.42;;;;;;;;;;5015125;28;20080;-47
2021/06/01 20:06:06;;;;;;;7.00;3.28;;;;;;;;;;5016030;28;20501;-41
2021/06/01 20:08:38;;;;;;;3.17;2.55;;;;;;;;;;5011527;28;20057;-42
2021/06/01 20:11:04;;;;;;;3.70;2.28;;;;;;;;;;5018688;28;20088;-40
2021/06/01 20:13:30;;;;;;;6.78;3.55;;;;;;;;;;5016027;28;20026;-41
2021/06/01 20:15:55;;;;;;;4.78;3.08;;;;;;;;;;5018371;28;20137;-42
2021/06/01 20:18:25;;;;;;;6.68;3.97;;;;;;;;;;5020337;28;20042;-41
2021/06/01 20:20:53;;;;;;;5.03;1.92;;;;;;;;;;5019184;28;20095;-41
2021/06/01 20:23:19;;;;;;;11.48;3.10;;;;;;;;;;5016927;28;20040;-42
2021/06/01 20:25:54;;;;;;;5.32;2.20;;;;;;;;;;5019850;28;20017;-41
2021/06/01 20:28:36;;;;;;;5.88;2.40;;;;;;;;;;5012379;28;20037;-41
2021/06/01 20:31:07;;;;;;;3.45;2.45;;;;;;;;;;5014253;28;20041;-42
2021/06/01 20:33:36;;;;;;;7.07;3.55;;;;;;;;;;5017191;28;20044;-41
2021/06/01 20:36:02;;;;;;;11.80;2.72;;;;;;;;;;5013569;28;20038;-41
2021/06/01 20:38:28;;;;;;;6.82;3.53;;;;;;;;;;5013618;28;20037;-42
2021/06/01 20:40:54;;;;;;;5.18;3.08;;;;;;;;;;5015254;28;20407;-40
2021/06/01 20:43:19;;;;;;;5.35;3.22;;;;;;;;;;5019926;28;20439;-42
2021/06/01 20:45:46;;;;;;;11.15;4.32;;;;;;;;;;5021823;28;20045;-41
2021/06/01 20:48:16;;;;;;;4.95;3.17;;;;;;;;;;5018983;28;20172;-42
2021/06/01 20:50:43;;;;;;;10.40;3.65;;;;;;;;;;5000972;28;20494;-41
2021/06/01 20:53:09;;;;;;;7.95;5.15;;;;;;;;;;5016144;28;20051;-41
2021/06/01 20:55:35;;;;;;;11.18;4.57;;;;;;;;;;5020198;28;20029;-41
2021/06/01 20:58:02;;;;;;;10.65;2.70;;;;;;;;;;5019169;28;20397;-41
2021/06/01 21:00:38;;;;;;;6.65;3.28;;;;;;;;;;5021846;28;20030;-42
2021/06/01 21:03:05;;;;;;;6.47;3.42;;;;;;;;;;5022180;28;20048;-40
2021/06/01 21:05:31;;;;;;;19.42;4.25;;;;;;;;;;5018722;28;20017;-40
2021/06/01 21:07:57;;;;;;;8.63;3.60;;;;;;;;;;5021044;28;20059;-41
2021/06/01 21:10:23;;;;;;;7.57;2.53;;;;;;;;;;5018811;28;20517;-41
2021/06/01 21:12:49;;;;;;;16.17;3.35;;;;;;;;;;5016934;28;20034;-40
2021/06/01 21:15:14;;;;;;;8.82;2.20;;;;;;;;;;5018112;28;20107;-41
2021/06/01 21:17:40;;;;;;;4.68;2.30;;;;;;;;;;5016505;28;20455;-41
2021/06/01 21:20:07;;;;;;;14.18;2.97;;;;;;;;;;5021891;28;20387;-41
2021/06/01 21:22:34;;;;;;;10.15;3.05;;;;;;;;;;5019032;28;20041;-41
2021/06/01 21:25:00;;;;;;;5.90;2.78;;;;;;;;;;5018591;28;20426;-42
2021/06/01 21:27:25;;;;;;;10.07;3.42;;;;;;;;;;5019444;28;20157;-41
2021/06/01 21:29:50;;;;;;;16.02;3.00;;;;;;;;;;5018039;28;20423;-42
2021/06/01 21:32:25;;;;;;;4.60;3.67;;;;;;;;;;5018313;28;20029;-42
2021/06/01 21:34:52;;;;;;;8.13;3.03;;;;;;;;;;5017562;28;20249;-42
2021/06/01 21:37:18;;;;;;;12.48;3.20;;;;;;;;;;5018659;28;20025;-40
2021/06/01 21:39:45;;;;;;;5.60;3.13;;;;;;;;;;5018991;28;20061;-43
2021/06/01 21:42:11;;;;;;;9.43;2.28;;;;;;;;;;5022596;28;20025;-41
2021/06/01 21:44:39;;;;;;;7.63;3.42;;;;;;;;;;5019722;28;20041;-45
2021/06/01 21:47:07;;;;;;;6.55;3.67;;;;;;;;;;5020168;28;20541;-41
2021/06/01 21:49:37;;;;;;;7.45;2.78;;;;;;;;;;5020148;28;20117;-41
2021/06/01 21:52:04;;;;;;;9.27;2.65;;;;;;;;;;5018178;28;20038;-40
2021/06/01 21:54:29;;;;;;;13.40;2.78;;;;;;;;;;5018706;28;20040;-42
2021/06/01 21:56:56;;;;;;;8.43;2.55;;;;;;;;;;5015406;28;20030;-43
2021/06/01 21:59:23;;;;;;;10.95;2.67;;;;;;;;;;5017218;28;20038;-41
2021/06/01 22:01:48;;;;;;;4.25;2.97;;;;;;;;;;5019167;28;20085;-41
2021/06/01 22:04:14;;;;;;;5.95;2.45;;;;;;;;;;5017107;28;20533;-41
2021/06/01 22:06:40;;;;;;;4.75;2.88;;;;;;;;;;5018652;28;20061;-43
2021/06/01 22:09:05;;;;;;;16.25;2.63;;;;;;;;;;5020026;28;20064;-44
2021/06/01 22:11:31;;;;;;;4.65;2.78;;;;;;;;;;5020420;28;20108;-43
2021/06/01 22:13:56;;;;;;;9.00;3.58;;;;;;;;;;5020936;28;20037;-43
2021/06/01 22:16:22;;;;;;;7.35;4.05;;;;;;;;;;5019420;28;20109;-43